sensor_id;sensor_type;location;lat;lon;timestamp;pressure;altitude;pressure_sealevel;temperature
70819;BMP280;58439;51.046;13.692;2022-11-20T00:07:41;99760.50;;;-5.15
70819;BMP280;58439;51.046;13.692;2022-11-20T00:31:38;99752.31;;;-5.35
70819;BMP280;58439;51.046;13.692;2022-11-20T00:36:07;99755.56;;;-5.33
70819;BMP280;58439;51.046;13.692;2022-11-20T00:40:09;99761.50;;;-5.32
70819;BMP280;58439;51.046;13.692;2022-11-20T01:07:49;99770.97;;;-5.20
70819;BMP280;58439;51.046;13.692;2022-11-20T01:10:16;99776.72;;;-5.16
70819;BMP280;58439;51.046;13.692;2022-11-20T01:12:44;99777.59;;;-5.32
70819;BMP280;58439;51.046;13.692;2022-11-20T01:15:33;99781.00;;;-5.47
70819;BMP280;58439;51.046;13.692;2022-11-20T01:18:00;99777.94;;;-5.52
70819;BMP280;58439;51.046;13.692;2022-11-20T01:20:28;99767.44;;;-5.62
70819;BMP280;58439;51.046;13.692;2022-11-20T01:22:55;99770.84;;;-5.61
70819;BMP280;58439;51.046;13.692;2022-11-20T01:25:22;99769.34;;;-5.65
70819;BMP280;58439;51.046;13.692;2022-11-20T01:27:50;99768.06;;;-5.72
70819;BMP280;58439;51.046;13.692;2022-11-20T01:30:17;99767.16;;;-5.71
70819;BMP280;58439;51.046;13.692;2022-11-20T01:32:44;99757.69;;;-5.69
70819;BMP280;58439;51.046;13.692;2022-11-20T01:35:11;99757.31;;;-5.63
70819;BMP280;58439;51.046;13.692;2022-11-20T01:37:38;99765.06;;;-5.65
70819;BMP280;58439;51.046;13.692;2022-11-20T01:40:06;99756.50;;;-5.64
70819;BMP280;58439;51.046;13.692;2022-11-20T01:42:33;99760.78;;;-5.64
70819;BMP280;58439;51.046;13.692;2022-11-20T01:45:53;99749.63;;;-5.62
70819;BMP280;58439;51.046;13.692;2022-11-20T01:48:23;99754.78;;;-5.63
70819;BMP280;58439;51.046;13.692;2022-11-20T01:50:53;99755.31;;;-5.72
70819;BMP280;58439;51.046;13.692;2022-11-20T01:53:26;99747.19;;;-5.79
70819;BMP280;58439;51.046;13.692;2022-11-20T01:56:00;99753.47;;;-5.85
70819;BMP280;58439;51.046;13.692;2022-11-20T01:58:33;99747.56;;;-5.85
70819;BMP280;58439;51.046;13.692;2022-11-20T02:01:04;99747.56;;;-5.85
70819;BMP280;58439;51.046;13.692;2022-11-20T02:03:32;99737.28;;;-5.84
70819;BMP280;58439;51.046;13.692;2022-11-20T02:06:12;99746.06;;;-5.73
70819;BMP280;58439;51.046;13.692;2022-11-20T02:08:41;99737.88;;;-5.64
70819;BMP280;58439;51.046;13.692;2022-11-20T02:11:10;99741.16;;;-5.62
70819;BMP280;58439;51.046;13.692;2022-11-20T02:13:37;99735.19;;;-5.61
70819;BMP280;58439;51.046;13.692;2022-11-20T02:16:25;99734.34;;;-5.62
70819;BMP280;58439;51.046;13.692;2022-11-20T02:18:55;99736.16;;;-5.64
70819;BMP280;58439;51.046;13.692;2022-11-20T02:21:35;99726.22;;;-5.68
70819;BMP280;58439;51.046;13.692;2022-11-20T02:24:18;99728.72;;;-5.83
70819;BMP280;58439;51.046;13.692;2022-11-20T02:26:54;99730.72;;;-5.88
70819;BMP280;58439;51.046;13.692;2022-11-20T02:29:51;99724.00;;;-5.89
70819;BMP280;58439;51.046;13.692;2022-11-20T02:38:09;99718.94;;;-5.75
70819;BMP280;58439;51.046;13.692;2022-11-20T02:43:03;99729.97;;;-5.74
70819;BMP280;58439;51.046;13.692;2022-11-20T02:49:43;99731.84;;;-5.78
70819;BMP280;58439;51.046;13.692;2022-11-20T02:52:57;99732.94;;;-5.82
70819;BMP280;58439;51.046;13.692;2022-11-20T02:55:35;99723.09;;;-5.88
70819;BMP280;58439;51.046;13.692;2022-11-20T02:58:02;99726.56;;;-5.89
70819;BMP280;58439;51.046;13.692;2022-11-20T03:00:29;99724.19;;;-5.92
70819;BMP280;58439;51.046;13.692;2022-11-20T03:02:57;99721.78;;;-5.95
70819;BMP280;58439;51.046;13.692;2022-11-20T03:05:24;99724.09;;;-5.90
70819;BMP280;58439;51.046;13.692;2022-11-20T03:07:51;99728.19;;;-5.88
70819;BMP280;58439;51.046;13.692;2022-11-20T03:10:20;99721.63;;;-5.92
70819;BMP280;58439;51.046;13.692;2022-11-20T03:12:47;99718.53;;;-5.97
70819;BMP280;58439;51.046;13.692;2022-11-20T03:15:14;99718.69;;;-6.00
70819;BMP280;58439;51.046;13.692;2022-11-20T03:17:41;99722.22;;;-6.03
70819;BMP280;58439;51.046;13.692;2022-11-20T03:20:10;99717.06;;;-6.01
70819;BMP280;58439;51.046;13.692;2022-11-20T03:22:38;99720.31;;;-5.99
70819;BMP280;58439;51.046;13.692;2022-11-20T03:25:05;99711.78;;;-5.98
70819;BMP280;58439;51.046;13.692;2022-11-20T03:27:34;99714.41;;;-6.00
70819;BMP280;58439;51.046;13.692;2022-11-20T03:30:02;99715.44;;;-6.02
70819;BMP280;58439;51.046;13.692;2022-11-20T03:32:30;99705.03;;;-5.99
70819;BMP280;58439;51.046;13.692;2022-11-20T03:34:57;99713.50;;;-5.99
70819;BMP280;58439;51.046;13.692;2022-11-20T03:37:25;99710.25;;;-6.01
70819;BMP280;58439;51.046;13.692;2022-11-20T03:39:53;99710.25;;;-6.01
70819;BMP280;58439;51.046;13.692;2022-11-20T03:42:20;99711.97;;;-6.01
70819;BMP280;58439;51.046;13.692;2022-11-20T03:45:08;99711.06;;;-6.00
70819;BMP280;58439;51.046;13.692;2022-11-20T03:47:35;99704.59;;;-6.06
70819;BMP280;58439;51.046;13.692;2022-11-20T03:50:03;99701.28;;;-6.08
70819;BMP280;58439;51.046;13.692;2022-11-20T03:53:00;99706.38;;;-6.08
70819;BMP280;58439;51.046;13.692;2022-11-20T03:55:53;99707.28;;;-6.09
70819;BMP280;58439;51.046;13.692;2022-11-20T03:58:21;99711.47;;;-6.08
70819;BMP280;58439;51.046;13.692;2022-11-20T04:00:48;99706.53;;;-6.11
70819;BMP280;58439;51.046;13.692;2022-11-20T04:03:15;99708.81;;;-6.20
70819;BMP280;58439;51.046;13.692;2022-11-20T04:05:43;99705.09;;;-6.31
70819;BMP280;58439;51.046;13.692;2022-11-20T04:11:32;99704.53;;;-6.36
70819;BMP280;58439;51.046;13.692;2022-11-20T04:14:05;99696.09;;;-6.36
70819;BMP280;58439;51.046;13.692;2022-11-20T04:16:35;99695.84;;;-6.32
70819;BMP280;58439;51.046;13.692;2022-11-20T04:19:08;99692.22;;;-6.28
70819;BMP280;58439;51.046;13.692;2022-11-20T04:21:36;99692.78;;;-6.23
70819;BMP280;58439;51.046;13.692;2022-11-20T04:24:04;99691.03;;;-6.22
70819;BMP280;58439;51.046;13.692;2022-11-20T04:32:11;99680.81;;;-6.20
70819;BMP280;58439;51.046;13.692;2022-11-20T04:34:39;99672.34;;;-6.21
70819;BMP280;58439;51.046;13.692;2022-11-20T04:37:07;99665.69;;;-6.24
70819;BMP280;58439;51.046;13.692;2022-11-20T04:39:34;99658.34;;;-6.28
70819;BMP280;58439;51.046;13.692;2022-11-20T04:42:01;99674.78;;;-6.34
70819;BMP280;58439;51.046;13.692;2022-11-20T04:44:46;99667.97;;;-6.33
70819;BMP280;58439;51.046;13.692;2022-11-20T04:47:22;99667.97;;;-6.33
70819;BMP280;58439;51.046;13.692;2022-11-20T04:50:42;99670.41;;;-6.32
70819;BMP280;58439;51.046;13.692;2022-11-20T04:53:09;99675.59;;;-6.33
70819;BMP280;58439;51.046;13.692;2022-11-20T04:55:36;99662.09;;;-6.35
70819;BMP280;58439;51.046;13.692;2022-11-20T04:58:03;99671.47;;;-6.36
70819;BMP280;58439;51.046;13.692;2022-11-20T05:00:30;99675.75;;;-6.36
70819;BMP280;58439;51.046;13.692;2022-11-20T05:02:58;99675.81;;;-6.38
70819;BMP280;58439;51.046;13.692;2022-11-20T05:05:25;99678.53;;;-6.41
70819;BMP280;58439;51.046;13.692;2022-11-20T05:07:53;99679.69;;;-6.47
70819;BMP280;58439;51.046;13.692;2022-11-20T05:10:22;99687.25;;;-6.45
70819;BMP280;58439;51.046;13.692;2022-11-20T05:12:49;99682.25;;;-6.47
70819;BMP280;58439;51.046;13.692;2022-11-20T05:15:17;99682.34;;;-6.48
70819;BMP280;58439;51.046;13.692;2022-11-20T05:18:06;99678.19;;;-6.51
70819;BMP280;58439;51.046;13.692;2022-11-20T05:20:34;99670.13;;;-6.57
70819;BMP280;58439;51.046;13.692;2022-11-20T05:23:03;99674.59;;;-6.62
70819;BMP280;58439;51.046;13.692;2022-11-20T05:25:30;99673.06;;;-6.65
70819;BMP280;58439;51.046;13.692;2022-11-20T05:27:58;99678.63;;;-6.58
70819;BMP280;58439;51.046;13.692;2022-11-20T05:30:25;99682.63;;;-6.54
70819;BMP280;58439;51.046;13.692;2022-11-20T05:32:53;99667.56;;;-6.57
70819;BMP280;58439;51.046;13.692;2022-11-20T05:35:20;99674.78;;;-6.65
70819;BMP280;58439;51.046;13.692;2022-11-20T05:37:47;99674.44;;;-6.75
70819;BMP280;58439;51.046;13.692;2022-11-20T05:40:15;99671.19;;;-6.77
70819;BMP280;58439;51.046;13.692;2022-11-20T05:42:45;99663.31;;;-6.73
70819;BMP280;58439;51.046;13.692;2022-11-20T05:45:12;99664.38;;;-6.61
70819;BMP280;58439;51.046;13.692;2022-11-20T05:47:39;99662.66;;;-6.60
70819;BMP280;58439;51.046;13.692;2022-11-20T05:50:07;99670.84;;;-6.55
70819;BMP280;58439;51.046;13.692;2022-11-20T05:52:34;99672.31;;;-6.51
70819;BMP280;58439;51.046;13.692;2022-11-20T05:55:03;99662.22;;;-6.53
70819;BMP280;58439;51.046;13.692;2022-11-20T05:57:36;99662.94;;;-6.51
70819;BMP280;58439;51.046;13.692;2022-11-20T06:00:04;99664.59;;;-6.50
70819;BMP280;58439;51.046;13.692;2022-11-20T06:02:35;99660.59;;;-6.54
70819;BMP280;58439;51.046;13.692;2022-11-20T06:05:20;99659.44;;;-6.64
70819;BMP280;58439;51.046;13.692;2022-11-20T06:07:48;99662.97;;;-6.67
70819;BMP280;58439;51.046;13.692;2022-11-20T06:10:15;99659.53;;;-6.65
70819;BMP280;58439;51.046;13.692;2022-11-20T06:12:42;99654.34;;;-6.64
70819;BMP280;58439;51.046;13.692;2022-11-20T06:15:10;99652.06;;;-6.69
70819;BMP280;58439;51.046;13.692;2022-11-20T06:17:53;99646.25;;;-6.71
70819;BMP280;58439;51.046;13.692;2022-11-20T06:20:22;99640.03;;;-6.81
70819;BMP280;58439;51.046;13.692;2022-11-20T06:22:49;99640.41;;;-6.88
70819;BMP280;58439;51.046;13.692;2022-11-20T06:25:16;99644.34;;;-6.83
70819;BMP280;58439;51.046;13.692;2022-11-20T06:27:43;99646.19;;;-6.69
70819;BMP280;58439;51.046;13.692;2022-11-20T06:30:11;99640.69;;;-6.61
70819;BMP280;58439;51.046;13.692;2022-11-20T06:32:38;99642.31;;;-6.60
70819;BMP280;58439;51.046;13.692;2022-11-20T06:35:06;99639.69;;;-6.59
70819;BMP280;58439;51.046;13.692;2022-11-20T06:37:33;99638.75;;;-6.58
70819;BMP280;58439;51.046;13.692;2022-11-20T06:40:00;99651.31;;;-6.55
70819;BMP280;58439;51.046;13.692;2022-11-20T06:42:27;99652.13;;;-6.54
70819;BMP280;58439;51.046;13.692;2022-11-20T06:44:54;99646.88;;;-6.51
70819;BMP280;58439;51.046;13.692;2022-11-20T06:47:21;99646.81;;;-6.50
70819;BMP280;58439;51.046;13.692;2022-11-20T06:49:48;99645.06;;;-6.49
70819;BMP280;58439;51.046;13.692;2022-11-20T06:52:16;99651.88;;;-6.50
70819;BMP280;58439;51.046;13.692;2022-11-20T06:54:43;99641.66;;;-6.48
70819;BMP280;58439;51.046;13.692;2022-11-20T06:57:10;99643.13;;;-6.44
70819;BMP280;58439;51.046;13.692;2022-11-20T06:59:37;99639.31;;;-6.37
70819;BMP280;58439;51.046;13.692;2022-11-20T07:02:04;99631.28;;;-6.29
70819;BMP280;58439;51.046;13.692;2022-11-20T07:04:31;99633.53;;;-6.25
70819;BMP280;58439;51.046;13.692;2022-11-20T07:06:58;99641.00;;;-6.22
70819;BMP280;58439;51.046;13.692;2022-11-20T07:09:25;99644.28;;;-6.19
70819;BMP280;58439;51.046;13.692;2022-11-20T07:11:53;99636.50;;;-6.16
70819;BMP280;58439;51.046;13.692;2022-11-20T07:14:20;99636.13;;;-6.10
70819;BMP280;58439;51.046;13.692;2022-11-20T07:16:47;99634.16;;;-6.05
70819;BMP280;58439;51.046;13.692;2022-11-20T07:19:14;99634.72;;;-6.00
70819;BMP280;58439;51.046;13.692;2022-11-20T07:21:41;99636.78;;;-5.92
70819;BMP280;58439;51.046;13.692;2022-11-20T07:24:08;99629.44;;;-5.83
70819;BMP280;58439;51.046;13.692;2022-11-20T07:26:36;99630.47;;;-5.71
70819;BMP280;58439;51.046;13.692;2022-11-20T07:29:03;99631.66;;;-5.62
70819;BMP280;58439;51.046;13.692;2022-11-20T07:31:34;99634.66;;;-5.56
70819;BMP280;58439;51.046;13.692;2022-11-20T07:34:02;99634.38;;;-5.51
70819;BMP280;58439;51.046;13.692;2022-11-20T07:36:29;99636.50;;;-5.43
70819;BMP280;58439;51.046;13.692;2022-11-20T07:38:56;99633.56;;;-5.37
70819;BMP280;58439;51.046;13.692;2022-11-20T07:41:24;99626.38;;;-5.31
70819;BMP280;58439;51.046;13.692;2022-11-20T07:43:51;99620.91;;;-5.24
70819;BMP280;58439;51.046;13.692;2022-11-20T07:46:18;99615.16;;;-5.14
70819;BMP280;58439;51.046;13.692;2022-11-20T07:48:46;99619.69;;;-5.05
70819;BMP280;58439;51.046;13.692;2022-11-20T07:51:13;99623.34;;;-4.94
70819;BMP280;58439;51.046;13.692;2022-11-20T07:53:40;99624.47;;;-4.86
70819;BMP280;58439;51.046;13.692;2022-11-20T07:56:07;99617.88;;;-4.75
70819;BMP280;58439;51.046;13.692;2022-11-20T07:58:34;99619.13;;;-4.68
70819;BMP280;58439;51.046;13.692;2022-11-20T08:01:06;99622.81;;;-4.60
70819;BMP280;58439;51.046;13.692;2022-11-20T08:03:34;99607.88;;;-4.51
70819;BMP280;58439;51.046;13.692;2022-11-20T08:06:04;99611.56;;;-4.43
70819;BMP280;58439;51.046;13.692;2022-11-20T08:08:33;99610.97;;;-4.33
70819;BMP280;58439;51.046;13.692;2022-11-20T08:11:08;99606.97;;;-4.25
70819;BMP280;58439;51.046;13.692;2022-11-20T08:14:07;99616.31;;;-4.11
70819;BMP280;58439;51.046;13.692;2022-11-20T08:17:05;99617.09;;;-3.98
70819;BMP280;58439;51.046;13.692;2022-11-20T08:20:00;99619.28;;;-3.92
70819;BMP280;58439;51.046;13.692;2022-11-20T08:23:28;99619.47;;;-3.82
70819;BMP280;58439;51.046;13.692;2022-11-20T08:26:34;99612.59;;;-3.69
70819;BMP280;58439;51.046;13.692;2022-11-20T08:29:02;99614.44;;;-3.58
70819;BMP280;58439;51.046;13.692;2022-11-20T08:31:30;99608.69;;;-3.49
70819;BMP280;58439;51.046;13.692;2022-11-20T08:33:57;99617.38;;;-3.38
70819;BMP280;58439;51.046;13.692;2022-11-20T08:36:25;99609.16;;;-3.31
70819;BMP280;58439;51.046;13.692;2022-11-20T08:38:55;99612.84;;;-3.22
70819;BMP280;58439;51.046;13.692;2022-11-20T08:41:22;99608.94;;;-3.15
70819;BMP280;58439;51.046;13.692;2022-11-20T08:44:03;99605.63;;;-3.04
70819;BMP280;58439;51.046;13.692;2022-11-20T08:46:37;99611.63;;;-2.93
70819;BMP280;58439;51.046;13.692;2022-11-20T08:49:08;99610.94;;;-2.83
70819;BMP280;58439;51.046;13.692;2022-11-20T08:51:36;99608.72;;;-2.64
70819;BMP280;58439;51.046;13.692;2022-11-20T08:54:05;99597.91;;;-2.56
70819;BMP280;58439;51.046;13.692;2022-11-20T08:56:35;99603.84;;;-2.56
70819;BMP280;58439;51.046;13.692;2022-11-20T08:59:02;99592.22;;;-2.49
70819;BMP280;58439;51.046;13.692;2022-11-20T09:01:50;99595.53;;;-2.24
70819;BMP280;58439;51.046;13.692;2022-11-20T09:04:21;99582.75;;;-2.13
70819;BMP280;58439;51.046;13.692;2022-11-20T09:06:48;99574.47;;;-2.16
70819;BMP280;58439;51.046;13.692;2022-11-20T09:09:18;99574.47;;;-2.16
70819;BMP280;58439;51.046;13.692;2022-11-20T09:11:46;99579.47;;;-1.92
70819;BMP280;58439;51.046;13.692;2022-11-20T09:14:13;99568.44;;;-1.82
70819;BMP280;58439;51.046;13.692;2022-11-20T09:16:40;99571.59;;;-1.78
70819;BMP280;58439;51.046;13.692;2022-11-20T09:19:07;99569.25;;;-1.70
70819;BMP280;58439;51.046;13.692;2022-11-20T09:21:55;99567.56;;;-1.60
70819;BMP280;58439;51.046;13.692;2022-11-20T09:24:26;99558.25;;;-1.61
70819;BMP280;58439;51.046;13.692;2022-11-20T09:26:54;99561.75;;;-1.62
70819;BMP280;58439;51.046;13.692;2022-11-20T09:29:21;99562.34;;;-1.58
70819;BMP280;58439;51.046;13.692;2022-11-20T09:31:49;99566.38;;;-1.44
70819;BMP280;58439;51.046;13.692;2022-11-20T09:34:16;99566.72;;;-1.38
70819;BMP280;58439;51.046;13.692;2022-11-20T09:36:43;99565.63;;;-1.35
70819;BMP280;58439;51.046;13.692;2022-11-20T09:39:11;99566.13;;;-1.30
70819;BMP280;58439;51.046;13.692;2022-11-20T09:42:01;99563.31;;;-1.27
70819;BMP280;58439;51.046;13.692;2022-11-20T09:55:55;99572.00;;;-0.65
70819;BMP280;58439;51.046;13.692;2022-11-20T09:58:33;99561.13;;;-0.58
70819;BMP280;58439;51.046;13.692;2022-11-20T10:01:15;99568.41;;;0.78
70819;BMP280;58439;51.046;13.692;2022-11-20T10:04:04;99558.63;;;6.51
70819;BMP280;58439;51.046;13.692;2022-11-20T10:06:41;99558.25;;;9.27
70819;BMP280;58439;51.046;13.692;2022-11-20T10:12:15;99551.63;;;10.45
70819;BMP280;58439;51.046;13.692;2022-11-20T10:27:11;99536.53;;;14.11
70819;BMP280;58439;51.046;13.692;2022-11-20T10:29:47;99525.03;;;14.53
70819;BMP280;58439;51.046;13.692;2022-11-20T10:32:24;99525.72;;;14.60
70819;BMP280;58439;51.046;13.692;2022-11-20T10:35:03;99527.31;;;14.61
70819;BMP280;58439;51.046;13.692;2022-11-20T10:37:37;99523.78;;;12.90
70819;BMP280;58439;51.046;13.692;2022-11-20T10:40:35;99523.00;;;11.84
70819;BMP280;58439;51.046;13.692;2022-11-20T10:43:31;99528.75;;;11.43
70819;BMP280;58439;51.046;13.692;2022-11-20T10:46:24;99528.63;;;8.65
70819;BMP280;58439;51.046;13.692;2022-11-20T10:48:52;99528.75;;;6.32
70819;BMP280;58439;51.046;13.692;2022-11-20T10:51:39;99524.91;;;4.79
70819;BMP280;58439;51.046;13.692;2022-11-20T11:00:12;99525.44;;;8.70
70819;BMP280;58439;51.046;13.692;2022-11-20T11:02:53;99524.88;;;9.70
70819;BMP280;58439;51.046;13.692;2022-11-20T11:05:50;99522.06;;;8.41
70819;BMP280;58439;51.046;13.692;2022-11-20T11:08:21;99524.63;;;7.19
70819;BMP280;58439;51.046;13.692;2022-11-20T11:10:56;99519.53;;;8.89
70819;BMP280;58439;51.046;13.692;2022-11-20T11:13:31;99508.78;;;10.26
70819;BMP280;58439;51.046;13.692;2022-11-20T11:15:58;99509.22;;;9.70
70819;BMP280;58439;51.046;13.692;2022-11-20T11:18:34;99500.06;;;8.22
70819;BMP280;58439;51.046;13.692;2022-11-20T11:21:04;99507.97;;;6.32
70819;BMP280;58439;51.046;13.692;2022-11-20T11:38:43;99473.94;;;10.72
70819;BMP280;58439;51.046;13.692;2022-11-20T12:12:19;99446.47;;;7.42
70819;BMP280;58439;51.046;13.692;2022-11-20T12:15:02;99441.69;;;9.54
70819;BMP280;58439;51.046;13.692;2022-11-20T12:17:57;99437.47;;;6.73
70819;BMP280;58439;51.046;13.692;2022-11-20T14:15:30;99406.78;;;1.83
70819;BMP280;58439;51.046;13.692;2022-11-20T14:23:11;99399.88;;;1.74
70819;BMP280;58439;51.046;13.692;2022-11-20T14:26:02;99400.66;;;1.66
70819;BMP280;58439;51.046;13.692;2022-11-20T14:28:50;99396.31;;;1.67
70819;BMP280;58439;51.046;13.692;2022-11-20T14:47:56;99405.72;;;0.17
70819;BMP280;58439;51.046;13.692;2022-11-20T14:50:29;99396.13;;;0.00
70819;BMP280;58439;51.046;13.692;2022-11-20T14:52:58;99390.28;;;-0.12
70819;BMP280;58439;51.046;13.692;2022-11-20T14:55:27;99388.66;;;-0.22
70819;BMP280;58439;51.046;13.692;2022-11-20T14:58:20;99385.69;;;-0.28
70819;BMP280;58439;51.046;13.692;2022-11-20T15:01:04;99393.97;;;-0.55
70819;BMP280;58439;51.046;13.692;2022-11-20T15:03:36;99383.09;;;-0.68
70819;BMP280;58439;51.046;13.692;2022-11-20T15:06:11;99392.69;;;-0.70
70819;BMP280;58439;51.046;13.692;2022-11-20T15:08:51;99388.28;;;-0.89
70819;BMP280;58439;51.046;13.692;2022-11-20T15:11:27;99376.19;;;-1.08
70819;BMP280;58439;51.046;13.692;2022-11-20T15:14:02;99387.38;;;-1.18
70819;BMP280;58439;51.046;13.692;2022-11-20T15:16:48;99385.53;;;-1.28
70819;BMP280;58439;51.046;13.692;2022-11-20T15:19:23;99382.19;;;-1.39
70819;BMP280;58439;51.046;13.692;2022-11-20T15:21:52;99383.78;;;-1.48
70819;BMP280;58439;51.046;13.692;2022-11-20T15:24:20;99374.66;;;-1.41
70819;BMP280;58439;51.046;13.692;2022-11-20T15:26:48;99380.97;;;-1.45
70819;BMP280;58439;51.046;13.692;2022-11-20T15:29:21;99378.47;;;-1.56
70819;BMP280;58439;51.046;13.692;2022-11-20T15:31:50;99371.91;;;-1.70
70819;BMP280;58439;51.046;13.692;2022-11-20T15:34:19;99374.72;;;-1.73
70819;BMP280;58439;51.046;13.692;2022-11-20T15:37:00;99370.06;;;-1.79
70819;BMP280;58439;51.046;13.692;2022-11-20T15:39:27;99373.72;;;-1.93
70819;BMP280;58439;51.046;13.692;2022-11-20T15:41:55;99374.03;;;-1.86
70819;BMP280;58439;51.046;13.692;2022-11-20T15:44:22;99374.50;;;-1.81
70819;BMP280;58439;51.046;13.692;2022-11-20T15:46:51;99374.13;;;-1.77
70819;BMP280;58439;51.046;13.692;2022-11-20T15:49:18;99366.81;;;-1.81
70819;BMP280;58439;51.046;13.692;2022-11-20T15:51:49;99369.16;;;-1.89
70819;BMP280;58439;51.046;13.692;2022-11-20T15:54:20;99382.34;;;-1.94
70819;BMP280;58439;51.046;13.692;2022-11-20T15:56:50;99372.44;;;-1.99
70819;BMP280;58439;51.046;13.692;2022-11-20T15:59:21;99379.13;;;-2.07
70819;BMP280;58439;51.046;13.692;2022-11-20T16:01:48;99380.28;;;-2.11
70819;BMP280;58439;51.046;13.692;2022-11-20T16:04:16;99377.16;;;-2.15
70819;BMP280;58439;51.046;13.692;2022-11-20T16:06:44;99370.63;;;-2.08
70819;BMP280;58439;51.046;13.692;2022-11-20T16:09:11;99374.34;;;-2.12
70819;BMP280;58439;51.046;13.692;2022-11-20T16:11:39;99376.69;;;-2.09
70819;BMP280;58439;51.046;13.692;2022-11-20T16:14:09;99380.06;;;-2.08
70819;BMP280;58439;51.046;13.692;2022-11-20T16:16:55;99380.38;;;-2.02
70819;BMP280;58439;51.046;13.692;2022-11-20T16:19:23;99372.75;;;-1.81
70819;BMP280;58439;51.046;13.692;2022-11-20T16:21:50;99379.03;;;-1.74
70819;BMP280;58439;51.046;13.692;2022-11-20T16:24:18;99388.94;;;-1.59
70819;BMP280;58439;51.046;13.692;2022-11-20T16:26:46;99383.16;;;-1.61
70819;BMP280;58439;51.046;13.692;2022-11-20T16:29:13;99388.03;;;-1.58
70819;BMP280;58439;51.046;13.692;2022-11-20T16:31:42;99390.28;;;-1.65
70819;BMP280;58439;51.046;13.692;2022-11-20T16:34:09;99396.25;;;-1.76
70819;BMP280;58439;51.046;13.692;2022-11-20T16:36:49;99391.75;;;-1.83
70819;BMP280;58439;51.046;13.692;2022-11-20T16:39:16;99393.50;;;-1.84
70819;BMP280;58439;51.046;13.692;2022-11-20T16:41:50;99397.94;;;-1.97
70819;BMP280;58439;51.046;13.692;2022-11-20T16:44:17;99392.13;;;-1.99
70819;BMP280;58439;51.046;13.692;2022-11-20T16:46:44;99398.16;;;-1.89
70819;BMP280;58439;51.046;13.692;2022-11-20T16:49:13;99401.44;;;-1.98
70819;BMP280;58439;51.046;13.692;2022-11-20T16:51:46;99396.47;;;-2.11
70819;BMP280;58439;51.046;13.692;2022-11-20T16:54:14;99401.63;;;-2.22
70819;BMP280;58439;51.046;13.692;2022-11-20T16:56:56;99394.88;;;-2.34
70819;BMP280;58439;51.046;13.692;2022-11-20T16:59:25;99389.53;;;-2.42
70819;BMP280;58439;51.046;13.692;2022-11-20T17:01:52;99385.59;;;-2.58
70819;BMP280;58439;51.046;13.692;2022-11-20T17:04:20;99383.03;;;-2.69
70819;BMP280;58439;51.046;13.692;2022-11-20T17:06:48;99381.41;;;-2.70
70819;BMP280;58439;51.046;13.692;2022-11-20T17:09:16;99395.34;;;-2.74
70819;BMP280;58439;51.046;13.692;2022-11-20T17:11:43;99390.59;;;-2.79
70819;BMP280;58439;51.046;13.692;2022-11-20T17:14:11;99402.69;;;-2.81
70819;BMP280;58439;51.046;13.692;2022-11-20T17:16:39;99394.09;;;-2.80
70819;BMP280;58439;51.046;13.692;2022-11-20T17:19:08;99391.63;;;-2.81
70819;BMP280;58439;51.046;13.692;2022-11-20T17:21:36;99383.84;;;-2.80
70819;BMP280;58439;51.046;13.692;2022-11-20T17:24:08;99383.28;;;-2.83
70819;BMP280;58439;51.046;13.692;2022-11-20T17:26:39;99383.50;;;-2.86
70819;BMP280;58439;51.046;13.692;2022-11-20T17:29:12;99383.72;;;-2.89
70819;BMP280;58439;51.046;13.692;2022-11-20T17:31:41;99384.22;;;-2.96
70819;BMP280;58439;51.046;13.692;2022-11-20T17:34:17;99378.81;;;-3.04
70819;BMP280;58439;51.046;13.692;2022-11-20T17:36:46;99381.03;;;-3.10
70819;BMP280;58439;51.046;13.692;2022-11-20T17:39:15;99375.44;;;-3.16
70819;BMP280;58439;51.046;13.692;2022-11-20T17:41:44;99372.19;;;-3.18
70819;BMP280;58439;51.046;13.692;2022-11-20T17:44:33;99372.78;;;-3.14
70819;BMP280;58439;51.046;13.692;2022-11-20T17:47:00;99372.78;;;-3.14
70819;BMP280;58439;51.046;13.692;2022-11-20T17:49:28;99368.72;;;-3.17
70819;BMP280;58439;51.046;13.692;2022-11-20T17:51:57;99376.38;;;-3.17
70819;BMP280;58439;51.046;13.692;2022-11-20T17:54:25;99370.34;;;-3.16
70819;BMP280;58439;51.046;13.692;2022-11-20T17:57:10;99374.06;;;-2.86
70819;BMP280;58439;51.046;13.692;2022-11-20T18:00:12;99368.16;;;-2.64
70819;BMP280;58439;51.046;13.692;2022-11-20T18:02:39;99360.94;;;-2.59
70819;BMP280;58439;51.046;13.692;2022-11-20T18:05:08;99360.47;;;-2.53
70819;BMP280;58439;51.046;13.692;2022-11-20T18:07:36;99355.56;;;-2.67
70819;BMP280;58439;51.046;13.692;2022-11-20T18:10:08;99358.72;;;-2.75
70819;BMP280;58439;51.046;13.692;2022-11-20T18:12:38;99344.19;;;-2.85
70819;BMP280;58439;51.046;13.692;2022-11-20T18:15:06;99341.88;;;-3.00
70819;BMP280;58439;51.046;13.692;2022-11-20T18:17:33;99349.06;;;-3.05
70819;BMP280;58439;51.046;13.692;2022-11-20T18:20:03;99347.44;;;-3.06
70819;BMP280;58439;51.046;13.692;2022-11-20T18:22:51;99344.28;;;-3.09
70819;BMP280;58439;51.046;13.692;2022-11-20T18:25:18;99343.03;;;-3.15
70819;BMP280;58439;51.046;13.692;2022-11-20T18:27:49;99349.97;;;-3.17
70819;BMP280;58439;51.046;13.692;2022-11-20T18:30:18;99351.63;;;-3.16
70819;BMP280;58439;51.046;13.692;2022-11-20T18:32:46;99361.28;;;-3.20
70819;BMP280;58439;51.046;13.692;2022-11-20T18:35:14;99342.91;;;-3.25
70819;BMP280;58439;51.046;13.692;2022-11-20T18:37:42;99342.56;;;-3.20
70819;BMP280;58439;51.046;13.692;2022-11-20T18:40:10;99356.97;;;-3.08
70819;BMP280;58439;51.046;13.692;2022-11-20T18:42:40;99341.63;;;-2.85
70819;BMP280;58439;51.046;13.692;2022-11-20T18:45:26;99334.91;;;-2.75
70819;BMP280;58439;51.046;13.692;2022-11-20T18:47:55;99346.66;;;-2.73
70819;BMP280;58439;51.046;13.692;2022-11-20T18:50:23;99351.41;;;-2.90
70819;BMP280;58439;51.046;13.692;2022-11-20T18:52:51;99337.91;;;-3.04
70819;BMP280;58439;51.046;13.692;2022-11-20T18:55:18;99334.06;;;-3.09
70819;BMP280;58439;51.046;13.692;2022-11-20T18:57:46;99335.47;;;-3.17
70819;BMP280;58439;51.046;13.692;2022-11-20T19:00:13;99333.69;;;-3.27
70819;BMP280;58439;51.046;13.692;2022-11-20T19:02:42;99329.84;;;-3.33
70819;BMP280;58439;51.046;13.692;2022-11-20T19:05:12;99331.72;;;-3.35
70819;BMP280;58439;51.046;13.692;2022-11-20T19:07:40;99326.47;;;-3.33
70819;BMP280;58439;51.046;13.692;2022-11-20T19:10:08;99333.47;;;-3.35
70819;BMP280;58439;51.046;13.692;2022-11-20T19:12:45;99329.59;;;-3.41
70819;BMP280;58439;51.046;13.692;2022-11-20T19:15:15;99336.94;;;-3.36
70819;BMP280;58439;51.046;13.692;2022-11-20T19:17:42;99327.19;;;-3.31